createdAt,value
2023-07-26T00:01:57.253Z,13.42
2023-07-26T00:04:23.788Z,13.48
2023-07-26T00:06:50.317Z,13.32
2023-07-26T00:09:16.946Z,13.32
2023-07-26T00:11:43.478Z,13.30
2023-07-26T00:14:09.986Z,13.18
2023-07-26T00:16:36.668Z,13.15
2023-07-26T00:19:03.598Z,13.09
2023-07-26T00:21:30.162Z,12.99
2023-07-26T00:23:57.044Z,12.86
2023-07-26T00:26:23.634Z,12.85
2023-07-26T00:28:50.185Z,12.84
2023-07-26T00:31:16.961Z,12.78
2023-07-26T00:33:43.467Z,12.73
2023-07-26T00:36:10.576Z,12.70
2023-07-26T00:38:37.112Z,12.65
2023-07-26T00:41:03.625Z,12.67
2023-07-26T00:43:30.150Z,12.62
2023-07-26T00:45:56.730Z,12.51
2023-07-26T00:48:24.140Z,12.49
2023-07-26T00:50:50.727Z,12.51
2023-07-26T00:53:18.034Z,12.51
2023-07-26T00:55:46.223Z,12.49
2023-07-26T00:58:13.544Z,12.45
2023-07-26T01:00:44.266Z,12.41
2023-07-26T01:03:10.915Z,12.40
2023-07-26T01:09:28.709Z,12.37
2023-07-26T01:12:23.077Z,12.29
2023-07-26T01:14:58.081Z,12.23
2023-07-26T01:17:25.578Z,12.22
2023-07-26T01:19:52.987Z,12.17
2023-07-26T01:22:19.539Z,12.15
2023-07-26T01:24:46.037Z,12.05
2023-07-26T01:27:12.623Z,11.97
2023-07-26T01:29:39.271Z,12.03
2023-07-26T01:32:08.744Z,11.90
2023-07-26T01:34:35.821Z,11.87
2023-07-26T01:37:02.819Z,11.86
2023-07-26T01:39:30.111Z,11.88
2023-07-26T01:41:57.035Z,11.76
2023-07-26T01:44:23.731Z,11.75
2023-07-26T01:46:53.895Z,11.74
2023-07-26T01:49:23.052Z,11.73
2023-07-26T01:51:49.526Z,11.67
2023-07-26T01:54:16.780Z,11.64
2023-07-26T01:56:43.264Z,11.56
2023-07-26T01:59:10.737Z,11.57
2023-07-26T02:01:38.248Z,11.51
2023-07-26T02:04:04.966Z,11.42
2023-07-26T02:06:31.516Z,11.44
2023-07-26T02:08:58.138Z,11.43
2023-07-26T02:11:24.600Z,11.38
2023-07-26T02:13:51.075Z,11.44
2023-07-26T02:16:17.607Z,11.36
2023-07-26T02:18:44.588Z,11.29
2023-07-26T02:21:11.169Z,11.33
2023-07-26T02:23:37.694Z,11.30
2023-07-26T02:26:05.165Z,11.29
2023-07-26T02:28:31.654Z,11.26
2023-07-26T02:30:58.133Z,11.29
2023-07-26T02:33:24.633Z,11.25
2023-07-26T02:35:51.123Z,11.21
2023-07-26T02:38:17.606Z,11.25
2023-07-26T02:40:44.154Z,11.21
2023-07-26T02:43:10.643Z,11.19
2023-07-26T02:45:37.145Z,11.16
2023-07-26T02:48:03.979Z,11.21
2023-07-26T02:50:30.514Z,11.20
2023-07-26T02:52:56.967Z,11.09
2023-07-26T02:55:24.286Z,11.09
2023-07-26T02:57:50.765Z,11.05
2023-07-26T03:00:17.636Z,10.94
2023-07-26T03:02:44.286Z,10.91
2023-07-26T03:05:11.729Z,10.92
2023-07-26T03:07:38.257Z,10.83
2023-07-26T03:10:05.129Z,10.74
2023-07-26T03:12:31.595Z,10.71
2023-07-26T03:14:58.097Z,10.65
2023-07-26T03:17:24.660Z,10.65
2023-07-26T03:19:51.966Z,10.58
2023-07-26T03:22:18.550Z,10.59
2023-07-26T03:24:45.104Z,10.60
2023-07-26T03:27:11.881Z,10.54
2023-07-26T03:29:38.510Z,10.59
2023-07-26T03:32:05.431Z,10.49
2023-07-26T03:34:32.029Z,10.48
2023-07-26T03:36:58.849Z,10.43
2023-07-26T03:39:26.155Z,10.42
2023-07-26T03:41:52.772Z,10.40
2023-07-26T03:44:19.295Z,10.34
2023-07-26T03:46:45.860Z,10.36
2023-07-26T03:49:12.906Z,10.34
2023-07-26T03:51:39.455Z,10.39
2023-07-26T03:54:06.597Z,10.39
2023-07-26T03:56:33.273Z,10.35
2023-07-26T03:58:59.876Z,10.33
2023-07-26T04:01:27.031Z,10.35
2023-07-26T04:03:53.880Z,10.34
2023-07-26T04:06:20.692Z,10.35
2023-07-26T04:08:47.579Z,10.37
2023-07-26T04:11:14.182Z,10.37
2023-07-26T04:13:40.800Z,10.43
2023-07-26T04:16:27.553Z,10.41
2023-07-26T04:18:54.212Z,10.43
2023-07-26T04:21:21.009Z,10.45
2023-07-26T04:23:47.798Z,10.44
2023-07-26T04:26:14.478Z,10.45
2023-07-26T04:28:41.352Z,10.52
2023-07-26T04:31:07.958Z,10.56
2023-07-26T04:33:34.674Z,10.63
2023-07-26T04:36:01.300Z,10.73
2023-07-26T04:38:27.843Z,10.77
2023-07-26T04:40:54.445Z,10.75
2023-07-26T04:43:21.358Z,10.93
2023-07-26T04:45:51.728Z,11.08
2023-07-26T04:48:19.448Z,10.99
2023-07-26T04:50:47.540Z,10.99
2023-07-26T04:53:14.344Z,11.06
2023-07-26T04:55:48.130Z,11.07
2023-07-26T04:58:15.095Z,11.19
2023-07-26T05:00:42.273Z,11.10
2023-07-26T05:03:09.681Z,11.11
2023-07-26T05:05:36.887Z,11.16
2023-07-26T05:08:06.053Z,11.09
2023-07-26T05:10:32.977Z,11.04
2023-07-26T05:12:59.623Z,11.11
2023-07-26T05:15:26.355Z,11.11
2023-07-26T05:17:53.156Z,11.16
2023-07-26T05:20:20.002Z,11.17
2023-07-26T05:22:46.494Z,11.26
2023-07-26T05:25:12.981Z,11.31
2023-07-26T05:27:39.480Z,11.36
2023-07-26T05:30:06.689Z,11.39
2023-07-26T05:32:34.079Z,11.41
2023-07-26T05:35:00.662Z,11.34
2023-07-26T05:37:27.299Z,11.37
2023-07-26T05:39:53.840Z,11.42
2023-07-26T05:42:20.366Z,11.54
2023-07-26T05:44:46.886Z,11.55
2023-07-26T05:47:15.333Z,11.62
2023-07-26T05:49:43.665Z,11.68
2023-07-26T05:52:10.733Z,11.69
2023-07-26T05:54:37.849Z,11.82
2023-07-26T05:57:04.925Z,11.83
2023-07-26T05:59:31.825Z,11.85
2023-07-26T06:01:59.577Z,11.97
2023-07-26T06:04:26.388Z,12.04
2023-07-26T06:06:52.974Z,12.14
2023-07-26T06:09:23.779Z,12.11
2023-07-26T06:11:56.685Z,12.34
2023-07-26T06:14:26.296Z,12.42
2023-07-26T06:16:54.151Z,12.50
2023-07-26T06:19:20.903Z,12.35
2023-07-26T06:21:48.224Z,12.54
2023-07-26T06:24:14.813Z,12.64
2023-07-26T06:26:41.437Z,12.73
2023-07-26T06:29:08.021Z,12.86
2023-07-26T06:31:34.751Z,12.91
2023-07-26T06:34:01.693Z,13.03
2023-07-26T06:36:28.616Z,13.13
2023-07-26T06:38:55.247Z,13.15
2023-07-26T06:41:21.764Z,13.16
2023-07-26T06:43:48.360Z,13.49
2023-07-26T06:46:14.977Z,13.48
2023-07-26T06:48:43.858Z,13.65
2023-07-26T06:51:11.295Z,13.77
2023-07-26T06:53:38.003Z,13.89
2023-07-26T06:56:05.077Z,13.93
2023-07-26T06:58:31.637Z,14.07
2023-07-26T07:00:59.472Z,14.16
2023-07-26T07:03:26.101Z,14.00
2023-07-26T07:05:52.631Z,14.21
2023-07-26T07:08:19.157Z,14.30
2023-07-26T07:10:45.887Z,14.37
2023-07-26T07:13:12.408Z,14.45
2023-07-26T07:15:38.907Z,14.41
2023-07-26T07:18:15.364Z,14.45
2023-07-26T07:20:42.850Z,14.83
2023-07-26T07:23:10.451Z,14.65
2023-07-26T07:25:40.238Z,14.70
2023-07-26T07:28:06.855Z,14.66
2023-07-26T07:30:33.626Z,14.69
2023-07-26T07:33:00.331Z,14.85
2023-07-26T07:35:26.962Z,14.97
2023-07-26T07:37:53.425Z,15.25
2023-07-26T07:40:19.914Z,15.57
2023-07-26T07:42:46.368Z,15.91
2023-07-26T07:45:13.656Z,16.32
2023-07-26T07:47:40.177Z,16.43
2023-07-26T07:50:07.186Z,16.56
2023-07-26T07:52:34.014Z,16.30
2023-07-26T07:55:00.553Z,16.55
2023-07-26T07:57:27.888Z,16.97
2023-07-26T07:59:57.343Z,16.93
2023-07-26T08:02:24.358Z,17.03
2023-07-26T08:04:50.898Z,16.97
2023-07-26T08:07:18.251Z,16.94
2023-07-26T08:09:45.721Z,16.99
2023-07-26T08:12:12.292Z,17.10
2023-07-26T08:14:38.766Z,17.51
2023-07-26T08:17:06.037Z,17.85
2023-07-26T08:19:32.879Z,17.69
2023-07-26T08:21:59.424Z,17.87
2023-07-26T08:24:26.342Z,18.14
2023-07-26T08:26:53.667Z,17.88
2023-07-26T08:29:20.198Z,17.70
2023-07-26T08:31:46.690Z,17.47
2023-07-26T08:34:14.027Z,17.34
2023-07-26T08:36:40.524Z,17.10
2023-07-26T08:39:09.475Z,17.33
2023-07-26T08:41:39.226Z,17.69
2023-07-26T08:44:08.114Z,17.66
2023-07-26T08:46:34.954Z,17.67
2023-07-26T08:49:01.627Z,18.37
2023-07-26T08:51:29.798Z,18.78
2023-07-26T08:53:58.802Z,19.12
2023-07-26T08:56:28.321Z,19.45
2023-07-26T08:58:54.825Z,19.43
2023-07-26T09:01:23.104Z,18.97
2023-07-26T09:03:49.983Z,19.65
2023-07-26T09:06:16.568Z,20.54
2023-07-26T09:08:43.986Z,21.07
2023-07-26T09:11:24.887Z,21.40
2023-07-26T09:14:00.183Z,21.58
2023-07-26T09:16:33.339Z,22.21
2023-07-26T09:19:00.563Z,22.68
2023-07-26T09:21:32.885Z,22.56
2023-07-26T09:24:00.610Z,21.11
2023-07-26T09:26:38.493Z,20.24
2023-07-26T09:29:16.689Z,19.58
2023-07-26T09:31:44.684Z,20.44
2023-07-26T09:34:14.670Z,20.37
2023-07-26T09:36:51.617Z,20.16
2023-07-26T09:39:30.553Z,19.75
2023-07-26T09:42:10.065Z,20.84
2023-07-26T09:44:38.341Z,21.90
2023-07-26T09:47:05.925Z,22.05
2023-07-26T09:49:32.972Z,22.10
2023-07-26T09:54:34.398Z,23.16
2023-07-26T09:57:02.730Z,21.81
2023-07-26T09:59:31.382Z,21.09
2023-07-26T10:02:01.687Z,20.36
2023-07-26T10:04:50.277Z,21.81
2023-07-26T10:07:17.744Z,22.96
2023-07-26T10:09:46.056Z,22.95
2023-07-26T10:12:13.517Z,23.55
2023-07-26T10:14:40.950Z,24.05
2023-07-26T10:17:08.117Z,24.23
2023-07-26T10:19:37.993Z,24.79
2023-07-26T10:22:06.660Z,25.57
2023-07-26T10:24:37.604Z,26.19
2023-07-26T10:27:05.364Z,24.92
2023-07-26T10:29:32.184Z,24.28
2023-07-26T10:32:07.528Z,24.64
2023-07-26T10:34:35.022Z,25.23
2023-07-26T10:37:14.962Z,26.38
2023-07-26T10:39:41.520Z,27.22
2023-07-26T10:42:22.955Z,27.94
2023-07-26T10:44:49.618Z,27.70
2023-07-26T10:47:16.243Z,26.09
2023-07-26T10:49:47.941Z,24.18
2023-07-26T10:52:14.690Z,22.72
2023-07-26T10:54:43.771Z,22.04
2023-07-26T10:57:22.592Z,21.48
2023-07-26T11:00:07.555Z,21.83
2023-07-26T11:02:43.527Z,22.96
2023-07-26T11:05:12.202Z,22.47
2023-07-26T11:08:01.665Z,21.41
2023-07-26T11:10:34.047Z,21.51
2023-07-26T11:13:17.970Z,20.50
2023-07-26T11:16:13.805Z,20.10
2023-07-26T11:18:43.360Z,20.39
2023-07-26T11:21:16.539Z,20.82
2023-07-26T11:23:43.422Z,21.21
2023-07-26T11:26:09.925Z,20.75
2023-07-26T11:28:44.490Z,19.80
2023-07-26T11:31:19.861Z,18.60
2023-07-26T11:33:46.470Z,17.66
2023-07-26T11:36:22.984Z,16.90
2023-07-26T11:38:49.763Z,17.35
2023-07-26T11:41:20.287Z,17.64
2023-07-26T11:44:04.152Z,18.34
2023-07-26T11:46:31.263Z,18.35
2023-07-26T11:49:01.018Z,18.44
2023-07-26T11:51:49.028Z,18.09
2023-07-26T11:54:16.159Z,18.42
2023-07-26T11:56:43.951Z,18.18
2023-07-26T11:59:12.019Z,18.08
2023-07-26T12:01:39.327Z,17.48
2023-07-26T12:04:13.290Z,16.97
2023-07-26T12:06:41.572Z,16.54
2023-07-26T12:09:11.602Z,16.30
2023-07-26T12:11:52.260Z,16.26
2023-07-26T12:14:21.345Z,16.13
2023-07-26T12:16:52.612Z,16.28
2023-07-26T12:19:25.046Z,16.15
2023-07-26T12:21:52.548Z,16.40
2023-07-26T12:24:19.629Z,16.14
2023-07-26T12:26:49.113Z,16.35
2023-07-26T12:29:16.806Z,16.66
2023-07-26T12:31:43.430Z,16.70
2023-07-26T12:34:12.001Z,16.75
2023-07-26T12:36:38.439Z,17.01
2023-07-26T12:39:09.654Z,17.05
2023-07-26T12:41:39.589Z,17.07
2023-07-26T12:44:07.867Z,16.95
2023-07-26T12:46:55.017Z,17.18
2023-07-26T12:49:21.732Z,17.21
2023-07-26T12:51:50.055Z,17.11
2023-07-26T12:54:16.957Z,17.25
2023-07-26T12:56:43.505Z,17.36
2023-07-26T12:59:11.194Z,17.34
2023-07-26T13:01:38.846Z,17.49
2023-07-26T13:04:06.917Z,17.56
2023-07-26T13:06:33.929Z,17.56
2023-07-26T13:09:01.187Z,17.60
2023-07-26T13:11:27.692Z,17.57
2023-07-26T13:13:54.299Z,17.67
2023-07-26T13:16:21.939Z,17.76
2023-07-26T13:18:48.649Z,17.81
2023-07-26T13:21:15.152Z,17.60
2023-07-26T13:23:41.675Z,17.72
2023-07-26T13:26:08.444Z,17.64
2023-07-26T13:28:35.007Z,17.61
2023-07-26T13:31:01.496Z,17.75
2023-07-26T13:33:28.349Z,17.72
2023-07-26T13:36:06.562Z,17.89
2023-07-26T13:38:33.117Z,18.03
2023-07-26T13:40:59.633Z,17.93
2023-07-26T13:43:26.890Z,17.80
2023-07-26T13:45:53.484Z,17.96
2023-07-26T13:48:20.149Z,18.09
2023-07-26T13:50:47.675Z,17.88
2023-07-26T13:53:14.212Z,17.72
2023-07-26T13:55:41.482Z,17.81
2023-07-26T13:58:07.994Z,17.94
2023-07-26T14:00:34.553Z,17.87
2023-07-26T14:03:01.122Z,18.09
2023-07-26T14:05:27.834Z,17.83
2023-07-26T14:07:55.116Z,17.91
2023-07-26T14:10:21.592Z,17.71
2023-07-26T14:12:48.129Z,17.66
2023-07-26T14:15:17.955Z,17.72
2023-07-26T14:17:45.601Z,17.84
2023-07-26T14:20:12.392Z,17.74
2023-07-26T14:22:38.980Z,17.54
2023-07-26T14:25:10.221Z,17.56
2023-07-26T14:27:36.974Z,17.46
2023-07-26T14:30:03.970Z,17.59
2023-07-26T14:32:31.435Z,17.46
2023-07-26T14:34:58.005Z,17.58
2023-07-26T14:37:24.473Z,17.59
2023-07-26T14:39:51.122Z,17.67
2023-07-26T14:42:17.695Z,17.41
2023-07-26T14:44:44.266Z,17.54
2023-07-26T14:47:10.839Z,17.35
2023-07-26T14:49:43.606Z,17.32
2023-07-26T14:52:16.829Z,17.35
2023-07-26T14:54:43.299Z,17.44
2023-07-26T14:57:14.406Z,17.33
2023-07-26T14:59:43.281Z,17.22
2023-07-26T15:02:11.450Z,17.17
2023-07-26T15:04:38.048Z,16.86
2023-07-26T15:07:05.193Z,16.66
2023-07-26T15:09:31.740Z,16.34
2023-07-26T15:11:58.881Z,16.34
2023-07-26T15:14:25.340Z,16.23
2023-07-26T15:16:51.875Z,16.19
2023-07-26T15:19:18.779Z,16.14
2023-07-26T15:21:45.395Z,16.02
2023-07-26T15:24:12.742Z,16.18
2023-07-26T15:26:39.211Z,16.31
2023-07-26T15:29:05.746Z,16.30
2023-07-26T15:31:32.409Z,16.30
2023-07-26T15:33:59.946Z,16.29
2023-07-26T15:36:26.637Z,16.30
2023-07-26T15:41:19.787Z,16.17
2023-07-26T15:43:47.897Z,16.10
2023-07-26T15:48:44.326Z,16.05
2023-07-26T15:51:11.633Z,16.10
2023-07-26T15:53:38.253Z,16.11
2023-07-26T15:56:05.200Z,16.10
2023-07-26T15:58:32.267Z,16.12
2023-07-26T16:00:59.008Z,16.02
2023-07-26T16:08:53.883Z,15.96
2023-07-26T16:11:11.363Z,15.94
2023-07-26T16:13:38.066Z,15.92
2023-07-26T16:18:35.086Z,15.81
2023-07-26T16:23:32.217Z,15.68
2023-07-26T16:25:58.785Z,15.56
2023-07-26T16:28:25.309Z,15.47
2023-07-26T16:30:51.851Z,15.51
2023-07-26T16:33:18.512Z,15.39
2023-07-26T16:35:45.047Z,15.40
2023-07-26T16:38:11.596Z,15.36
2023-07-26T16:40:39.788Z,15.41
2023-07-26T16:43:06.326Z,15.34
2023-07-26T16:45:32.840Z,15.44
2023-07-26T16:48:01.386Z,15.47
2023-07-26T16:50:27.939Z,15.53
2023-07-26T16:52:54.484Z,15.56
2023-07-26T16:55:21.394Z,15.60
2023-07-26T16:57:48.788Z,15.75
2023-07-26T17:00:15.497Z,15.73
2023-07-26T17:02:43.086Z,15.69
2023-07-26T17:05:09.728Z,15.65
2023-07-26T17:07:36.324Z,15.62
2023-07-26T17:10:02.887Z,15.62
2023-07-26T17:12:29.394Z,15.60
2023-07-26T17:14:55.948Z,15.51
2023-07-26T17:17:22.416Z,15.53
2023-07-26T17:19:49.068Z,15.52
2023-07-26T17:22:15.565Z,15.49
2023-07-26T17:24:42.103Z,15.48
2023-07-26T17:27:08.616Z,15.45
2023-07-26T17:29:35.158Z,15.41
2023-07-26T17:32:01.767Z,15.35
2023-07-26T17:34:28.270Z,15.39
2023-07-26T17:36:55.046Z,15.33
2023-07-26T17:39:24.112Z,15.34
2023-07-26T17:41:51.373Z,15.29
2023-07-26T17:44:17.902Z,15.31
2023-07-26T17:46:45.005Z,15.24
2023-07-26T17:49:11.508Z,15.22
2023-07-26T17:51:38.002Z,15.18
2023-07-26T17:54:04.691Z,15.12
2023-07-26T17:56:32.124Z,15.08
2023-07-26T17:58:58.853Z,15.06
2023-07-26T18:01:25.546Z,15.01
2023-07-26T18:03:54.659Z,15.04
2023-07-26T18:06:21.315Z,14.98
2023-07-26T18:08:47.875Z,14.94
2023-07-26T18:11:16.181Z,14.92
2023-07-26T18:13:42.932Z,14.89
2023-07-26T18:16:11.465Z,14.90
2023-07-26T18:18:38.413Z,14.85
2023-07-26T18:21:07.286Z,14.86
2023-07-26T18:23:35.724Z,14.81
2023-07-26T18:26:02.436Z,14.77
2023-07-26T18:28:29.035Z,14.76
2023-07-26T18:31:15.384Z,14.71
2023-07-26T18:33:44.857Z,14.65
2023-07-26T18:36:14.944Z,14.60
2023-07-26T18:38:41.555Z,14.52
2023-07-26T18:41:08.114Z,14.50
2023-07-26T18:43:35.510Z,14.47
2023-07-26T18:46:01.970Z,14.44
2023-07-26T18:48:29.205Z,14.40
2023-07-26T18:50:55.725Z,14.41
2023-07-26T18:53:22.378Z,14.37
2023-07-26T18:55:49.050Z,14.35
2023-07-26T18:58:16.059Z,14.38
2023-07-26T19:00:42.599Z,14.30
2023-07-26T19:03:09.269Z,14.26
2023-07-26T19:05:40.018Z,14.27
2023-07-26T19:08:07.922Z,14.29
2023-07-26T19:10:39.651Z,14.28
2023-07-26T19:13:06.883Z,14.32
2023-07-26T19:15:33.363Z,14.33
2023-07-26T19:18:00.409Z,14.33
2023-07-26T19:20:30.327Z,14.33
2023-07-26T19:22:57.048Z,14.36
2023-07-26T19:25:23.572Z,14.38
2023-07-26T19:27:50.047Z,14.40
2023-07-26T19:30:16.877Z,14.41
2023-07-26T19:32:44.165Z,14.43
2023-07-26T19:35:11.339Z,14.40
2023-07-26T19:37:39.366Z,14.33
2023-07-26T19:40:06.590Z,14.28
2023-07-26T19:42:34.489Z,14.21
2023-07-26T19:45:00.985Z,14.19
2023-07-26T19:47:27.552Z,14.15
2023-07-26T19:49:54.171Z,14.09
2023-07-26T19:52:20.670Z,14.03
2023-07-26T19:54:47.164Z,13.93
2023-07-26T19:57:14.034Z,13.85
2023-07-26T19:59:40.574Z,13.80
2023-07-26T20:02:07.391Z,13.71
2023-07-26T20:04:36.019Z,13.67
2023-07-26T20:07:02.656Z,13.62
2023-07-26T20:09:29.278Z,13.57
2023-07-26T20:11:58.166Z,13.54
2023-07-26T20:14:24.700Z,13.51
2023-07-26T20:16:51.290Z,13.46
2023-07-26T20:19:17.894Z,13.43
2023-07-26T20:21:44.525Z,13.38
2023-07-26T20:24:10.982Z,13.33
2023-07-26T20:26:37.508Z,13.27
2023-07-26T20:29:04.060Z,13.25
2023-07-26T20:31:30.561Z,13.23
2023-07-26T20:33:57.200Z,13.18
2023-07-26T20:36:23.646Z,13.13
2023-07-26T20:38:50.124Z,13.13
2023-07-26T20:41:16.666Z,13.12
2023-07-26T20:43:43.161Z,13.11
2023-07-26T20:46:09.747Z,13.07
2023-07-26T20:48:36.312Z,13.07
2023-07-26T20:51:05.850Z,13.03
2023-07-26T20:53:32.489Z,13.00
2023-07-26T20:56:01.240Z,12.98
2023-07-26T20:58:28.008Z,12.96
2023-07-26T21:00:54.545Z,13.04
2023-07-26T21:03:21.219Z,12.94
2023-07-26T21:05:49.350Z,12.92
2023-07-26T21:08:17.438Z,12.92
2023-07-26T21:10:43.917Z,12.97
2023-07-26T21:13:10.440Z,12.94
2023-07-26T21:15:39.189Z,12.93
2023-07-26T21:18:05.761Z,12.97
2023-07-26T21:20:32.510Z,13.00
2023-07-26T21:22:59.097Z,12.98
2023-07-26T21:25:25.623Z,13.00
2023-07-26T21:27:53.689Z,13.05
2023-07-26T21:30:20.645Z,13.02
2023-07-26T21:32:47.150Z,13.04
2023-07-26T21:35:13.665Z,13.06
2023-07-26T21:37:40.205Z,13.08
2023-07-26T21:40:07.409Z,13.06
2023-07-26T21:42:34.689Z,13.06
2023-07-26T21:45:01.459Z,13.00
2023-07-26T21:47:27.971Z,12.97
2023-07-26T21:49:54.474Z,12.98
2023-07-26T21:52:21.823Z,12.97
2023-07-26T21:54:48.292Z,12.96
2023-07-26T21:57:14.750Z,12.96
2023-07-26T21:59:41.242Z,13.00
2023-07-26T22:02:07.711Z,12.87
2023-07-26T22:04:34.289Z,12.90
2023-07-26T22:07:04.068Z,12.90
2023-07-26T22:09:32.846Z,12.98
2023-07-26T22:11:59.353Z,13.03
2023-07-26T22:14:25.845Z,13.02
2023-07-26T22:16:52.361Z,13.03
2023-07-26T22:19:18.863Z,13.04
2023-07-26T22:21:46.205Z,13.07
2023-07-26T22:24:13.125Z,13.05
2023-07-26T22:26:41.949Z,13.03
2023-07-26T22:29:08.426Z,12.99
2023-07-26T22:31:35.173Z,13.04
2023-07-26T22:34:01.981Z,12.99
2023-07-26T22:36:28.433Z,12.95
2023-07-26T22:38:55.011Z,12.95
2023-07-26T22:41:21.537Z,12.93
2023-07-26T22:43:48.104Z,12.96
2023-07-26T22:46:14.651Z,12.88
2023-07-26T22:48:43.193Z,12.80
2023-07-26T22:51:10.603Z,12.70
2023-07-26T22:53:37.143Z,12.68
2023-07-26T22:56:04.626Z,12.65
2023-07-26T22:58:31.097Z,12.60
2023-07-26T23:01:05.062Z,12.57
2023-07-26T23:03:32.073Z,12.48
2023-07-26T23:06:00.649Z,12.40
2023-07-26T23:08:28.617Z,12.35
2023-07-26T23:11:03.101Z,12.31
2023-07-26T23:13:32.142Z,12.25
2023-07-26T23:16:00.361Z,12.19
2023-07-26T23:18:27.442Z,12.21
2023-07-26T23:20:54.414Z,12.16
2023-07-26T23:23:22.532Z,12.12
2023-07-26T23:25:49.920Z,12.04
2023-07-26T23:28:17.167Z,11.93
2023-07-26T23:30:52.221Z,11.84
2023-07-26T23:33:20.194Z,11.81
2023-07-26T23:35:47.534Z,11.74
2023-07-26T23:38:14.748Z,11.69
2023-07-26T23:40:41.705Z,11.71
2023-07-26T23:43:09.880Z,11.68
2023-07-26T23:45:37.421Z,11.54
2023-07-26T23:48:04.353Z,11.60
2023-07-26T23:50:31.939Z,11.56
2023-07-26T23:52:58.460Z,11.57
2023-07-26T23:55:26.274Z,11.52
2023-07-26T23:57:53.715Z,11.49
